Oscar Alderete

Scout - River Plate
4 Apr 2027
Sonntag
Verarbeitung

Persönlichkeit

Anpassungsfähigkeit (1) Ehrgeiz (6) Kontroverse (8) Loyalität (10) Druck (1) Professionalität (5) Fairness (9) Temperament (18)

Profil

Trainerstil Demokratisch
Lizenz Nationale B
Entschlossenheit 4
Menschenführung 6
Motivation 3
Disziplin 5
Arbeitszufriedenheit
100%
Ermüdung
0%
Rolle Scout
Gehalt 31.9K p/W
Vertrag 14.03.2028

Leistung

Verhalten Gut
Trainingseffektivität
36%
Spielerentwicklung
50%
Verletzungsprävention
25%
Taktische Umsetzung
40%

Letzte Ereignisse

Nahm an einer Scouting-Besprechung teil jetzt
Spieler begutachtet jetzt
Spieler begutachtet jetzt
Spieler begutachtet jetzt
Spieler begutachtet 7T her
Spieler begutachtet 7T her
Spieler begutachtet 7T her
Spieler begutachtet 7T her

Aktuell beobachtet

216
Spieler Verein Status Fähigkeit Vertrauen Beobachtet Zuletzt beobachtet Letzte Stimme
Jean-Luc Morin Tours Aktiv 151 / 128 40% 3 03.04.2027 -
Dale Taylor Blackpool Aktiv 120 / 114 40% 1 03.04.2027 -
Matty Stevens AFC Wimbledon Aktiv 100 / 109 40% 3 02.04.2027 -
Ramiro Giannone Independiente Rivadavia Aktiv 89 / 84 40% 2 02.04.2027 -
Richard Koné Queens Park Rangers Aktiv 127 / 110 40% 2 02.04.2027 -
Aune Heggebø West Bromwich Albion Aktiv 120 / 119 40% 1 02.04.2027 -
Luis Montilla San Telmo Aktiv 94 / 102 40% 1 02.04.2027 -
Luca Fernández Barracas Central Aktiv 87 / 90 40% 1 02.04.2027 -
Ekain Orobengoa Real Sociedad Aktiv 110 / 123 40% 10 30.03.2027 -
Lorent Tolaj Plymouth Argyle Aktiv 130 / 110 40% 2 30.03.2027 -
Malik Mothersille Stockport County Aktiv 113 / 112 40% 1 30.03.2027 -
Nathan Moriah-Welsh Mansfield Town Aktiv 105 / 101 40% 1 30.03.2027 -
Jon Ander Olasagasti Levante Aktiv 123 / 139 40% 1 30.03.2027 -
Job Ochieng Real Sociedad Aktiv 111 / 90 40% 3 28.03.2027 -
Luis Vázquez Birmingham Aktiv 124 / 113 40% 1 28.03.2027 -
Mathias Kvistgaarden Norwich City Aktiv 120 / 111 40% 1 28.03.2027 -
Luke McNally Bristol City Aktiv 135 / 123 40% 1 28.03.2027 -
Hayden Carter Blackburn Rovers Aktiv 129 / 118 40% 1 28.03.2027 -
Jay McGrath Doncaster Rovers Aktiv 103 / 105 40% 1 28.03.2027 -
Gergő Bánfalvi Bekescsaba Aktiv 84 / 73 40% 1 27.03.2027 -
Thiago Nahuel Independiente Aktiv 81 / 93 40% 1 27.03.2027 -
Enrique Maza Atlético Tucumán Aktiv 95 / 95 40% 1 27.03.2027 -
Salah Mohsen El Masry Aktiv 111 / 116 40% 3 25.03.2027 -
Shayne Lavery Cambridge United Aktiv 110 / 118 40% 1 25.03.2027 -
Aaron Drinan Swindon Town Aktiv 115 / 106 40% 1 25.03.2027 -
Michel Ndary Adopo Cagliari Aktiv 143 / 134 40% 1 24.03.2027 -
Salvador Manríquez Dorados Aktiv 102 / 91 40% 1 24.03.2027 -
Gabriel Osho Cardiff City Aktiv 140 / 142 40% 1 24.03.2027 -
Josh Tymon Swansea City Aktiv 122 / 137 40% 3 23.03.2027 -
Mihailo Ivanović Millwall Aktiv 129 / 140 40% 2 23.03.2027 -
Karlan Grant West Bromwich Albion Aktiv 121 / 113 40% 1 23.03.2027 -
Michael Baidoo Plymouth Argyle Aktiv 117 / 114 40% 1 23.03.2027 -
James Morris Leyton Orient Aktiv 111 / 120 40% 1 23.03.2027 -
Jonathan Varane Queens Park Rangers Aktiv 132 / 138 40% 3 22.03.2027 -
Eoin Toal Bolton Wanderers Aktiv 115 / 106 40% 3 22.03.2027 -
Johnly Yfeko Exeter City Aktiv 118 / 95 40% 1 22.03.2027 -
Imrân Louza Watford Aktiv 141 / 123 40% 2 20.03.2027 -
Saba Sazonov Juve Stabia Aktiv 132 / 137 40% 4 20.03.2027 -
Alejandro Andrade Morelia Aktiv 111 / 116 40% 2 20.03.2027 -
Facundo Jáuregui Huracán Aktiv 97 / 117 40% 2 19.03.2027 -
Matías Molina Independiente Aktiv 90 / 109 40% 2 19.03.2027 -
Rafita Málaga Aktiv 106 / 103 40% 1 19.03.2027 -
Callum Styles West Bromwich Albion Aktiv 126 / 99 40% 1 19.03.2027 -
Kayne Ramsay Charlton Athletic Aktiv 117 / 118 40% 1 19.03.2027 -
Fábio Tavares Newport County Aktiv 91 / 105 40% 1 17.03.2027 -
Facundo Quintana Defensa y Justicia Aktiv 109 / 119 40% 2 16.03.2027 -
Diego Bolaños Argentinos Juniors Aktiv 82 / 96 40% 1 16.03.2027 -
Dylan Martínez River Plate Aktiv 92 / 89 40% 1 16.03.2027 -
Máximo Cabrera Gimnasia La Plata Aktiv 75 / 91 40% 1 14.03.2027 -
Gonçalo Ribeiro Porto Aktiv 94 / 103 40% 1 14.03.2027 -
Deniz Ertaş Konyaspor Aktiv 126 / 142 40% 1 14.03.2027 -
Aleksa Terzić Frosinone Aktiv 128 / 123 40% 1 12.03.2027 -
Felix Kudus Hasaacas Aktiv 101 / 98 40% 1 12.03.2027 -
Santiago Mondragón Deportivo Cali Aktiv 90 / 94 40% 1 11.03.2027 -
Brandon Gómez San Telmo Aktiv 90 / 96 40% 1 11.03.2027 -
Ross McCrorie Bristol City Aktiv 125 / 129 40% 1 11.03.2027 -
Facundo Garcés Alavés Aktiv 128 / 122 40% 2 10.03.2027 -
Lukáš Červ Viktoria Plzen Aktiv 141 / 117 40% 1 10.03.2027 -
Diego Valencia Gornik Leczna Aktiv 123 / 96 40% 4 07.03.2027 -
Mathias Jørgensen Blackburn Rovers Aktiv 120 / 112 40% 1 07.03.2027 -
Jackson Muleka Konyaspor Aktiv 127 / 133 40% 1 07.03.2027 -
Brayan Gil Baltika Aktiv 124 / 105 40% 1 06.03.2027 -
Julio Alonso Huesca Aktiv 122 / 137 40% 1 05.03.2027 -
Bart van Rooij Twente Aktiv 127 / 143 40% 1 05.03.2027 -
Danyil Alefirenko Chornomorets Aktiv 118 / 125 40% 5 04.03.2027 -
Dany Mota Monza Aktiv 123 / 128 40% 1 04.03.2027 -
Dom Ballard Leyton Orient Aktiv 127 / 137 40% 2 03.03.2027 -
Terry Devlin Portsmouth Aktiv 108 / 114 40% 1 03.03.2027 -
Harry Leonard Peterborough United Aktiv 99 / 117 40% 1 03.03.2027 -
John Yeboah Venezia Aktiv 112 / 129 40% 1 03.03.2027 -
Tyreece Campbell Charlton Athletic Aktiv 126 / 123 40% 2 01.03.2027 -
Niall Ennis Blackpool Aktiv 114 / 119 40% 1 01.03.2027 -
Roger Hinojo Espanyol Aktiv 125 / 139 40% 1 27.02.2027 -
Baïla Diallo Granada Aktiv 118 / 123 40% 1 27.02.2027 -
Joe Wallis PWD Bamenda Aktiv 71 / 83 40% 1 26.02.2027 -
Thiago Cano Banfield Aktiv 83 / 83 40% 1 26.02.2027 -
Francisco Sciarini Gefle Aktiv 102 / 94 40% 1 26.02.2027 -
Akor Adams Venezia Aktiv 144 / 139 40% 2 24.02.2027 -
Josh Coburn Millwall Aktiv 120 / 139 40% 1 24.02.2027 -
Sam Greenwood Bristol City Aktiv 125 / 110 40% 1 23.02.2027 -
Alexandr Sojka Viktoria Plzen Aktiv 127 / 143 40% 1 23.02.2027 -
Ollie Scarles West Ham United Aktiv 130 / 131 40% 1 23.02.2027 -
Leif Davis Ipswich Town Aktiv 133 / 154 40% 1 23.02.2027 -
Jayden Sweeney Grimsby Town Aktiv 110 / 89 40% 1 23.02.2027 -
Taiwo Awoniyi Coventry City Aktiv 135 / 146 40% 1 21.02.2027 -
Noah Sadiki Sunderland Aktiv 147 / 162 40% 2 20.02.2027 -
Adrian Benedyczak Kasimpasa Aktiv 134 / 141 40% 1 19.02.2027 -
Dennis Cirkin Queens Park Rangers Aktiv 138 / 142 40% 1 17.02.2027 -
Nobel Mendy Hull City Aktiv 138 / 134 40% 1 17.02.2027 -
Marc Bola Watford Aktiv 108 / 133 40% 2 16.02.2027 -
Gabriel Sara Galatasaray Aktiv 155 / 129 40% 2 16.02.2027 -
Andrey Tsitsilin Baltika Aktiv 74 / 63 40% 2 14.02.2027 -
Konan N'Dri Lecce Aktiv 133 / 114 40% 1 14.02.2027 -
José Barreto Fehervar Aktiv 114 / 93 40% 1 14.02.2027 -
Oleksii Hutsuliak Polissia Aktiv 124 / 133 40% 1 13.02.2027 -
Daniel Vašulín Zbrojovka Brno Aktiv 107 / 125 40% 1 11.02.2027 -
Pavel Meleshin Sochi Aktiv 105 / 131 40% 1 10.02.2027 -
Brodie Spencer Oxford United Aktiv 125 / 110 40% 1 10.02.2027 -
Jordan Storey Preston Aktiv 130 / 126 40% 1 07.02.2027 -
Daniel Phillips Stevenage Aktiv 106 / 128 40% 1 07.02.2027 -
Ondřej Lingr Korona Aktiv 136 / 107 40% 1 06.02.2027 -
Jacques Siwe Rubin Aktiv 114 / 115 40% 1 06.02.2027 -
Harry Clarke Preston Aktiv 117 / 144 40% 1 06.02.2027 -
Liberato Cacace Wrexham Aktiv 133 / 116 40% 1 02.02.2027 -
Viktor Baier Viktoria Plzen Aktiv 111 / 123 40% 2 09.01.2027 -
Martín D'Aurizio Eibar Aktiv 80 / 114 40% 1 09.01.2027 -
Kevin Martínez Danubio Aktiv 84 / 96 40% 1 07.01.2027 -
Sebastián Mella Huachipato Aktiv 98 / 105 40% 1 06.01.2027 -
Valentín Díaz Temperley Aktiv 87 / 87 40% 1 06.01.2027 -
Tomás Fernández Aldosivi Aktiv 112 / 125 40% 3 05.01.2027 -
Daniel Banjaqui Benfica Aktiv 118 / 135 40% 2 05.01.2027 -
David Ankeye Zeleznicar Pancevo Aktiv 117 / 121 40% 1 05.01.2027 -
Juho Lähteenmäki FC Nordsjaelland Aktiv 129 / 127 40% 1 05.01.2027 -
Samuel Lucero Defensa y Justicia Aktiv 120 / 110 40% 1 05.01.2027 -
Daniel Vernattus Metalist Aktiv 79 / 86 40% 1 30.12.2026 -
Cundo Leicester City Aktiv 133 / 133 40% 1 24.12.2026 -
Akinkunmi Amoo Ismaily Aktiv 133 / 105 40% 1 24.12.2026 -
Ibrahim Tarek Masr El Makasa Aktiv 126 / 108 40% 1 24.12.2026 -
Agustín Hausch Defensa y Justicia Aktiv 123 / 125 40% 3 22.12.2026 -
Franco Romero Kryvbas Aktiv 110 / 99 40% 1 22.12.2026 -
Juan Infante Atlético Tucumán Aktiv 129 / 123 40% 1 22.12.2026 -
Lucas Ramírez Olimpia Abgelehnt 94 / 100 69% 1 14.12.2026 Ablehnen
Tiago Pucciarelli FK Senica Aktiv 109 / 123 40% 3 30.11.2026 -
Yeangel Montero Naxxar Lions Aktiv 114 / 103 40% 1 30.11.2026 -
Marcelo Torres Gimnasia La Plata Aktiv 127 / 120 40% 1 30.11.2026 -
Nardin Mulahusejnović Vojvodina Aktiv 126 / 136 40% 2 29.11.2026 -
Mauro Valiente Estudiantes Aktiv 110 / 103 40% 2 29.11.2026 -
Franco Fagúndez Estudiantes Aktiv 118 / 119 40% 3 29.11.2026 -
Aaron Collins Milton Keynes Dons Aktiv 109 / 129 40% 1 28.11.2026 -
Jerónimo Porto Lapegüe Slask Aktiv 116 / 108 40% 5 27.11.2026 -
Marcos Cuenca Zaragoza Aktiv 120 / 112 40% 2 27.11.2026 -
Aaron Spetale AGF Aktiv 112 / 93 40% 3 25.11.2026 -
Thiago Calone All Boys Aktiv 112 / 100 40% 1 25.11.2026 -
Radek Šiler Podbrezova Aktiv 104 / 134 40% 1 25.11.2026 -
Santiago Rodríguez Gimnasia y Esgrima Abgelehnt 121 / 124 40% 2 24.11.2026 Mehr Infos nötig
Matías Giménez Rojas Argentinos Juniors Aktiv 115 / 128 40% 1 22.11.2026 -
Agustín Venezia Iquique Aktiv 104 / 123 40% 1 22.11.2026 -
Luca Martínez Dupuy Godoy Cruz Verhandlung 124 / 132 40% 1 20.11.2026 -
Justo Giani Universidad Catolica Aktiv 119 / 115 40% 1 20.11.2026 -
Matías Samaniego Talleres Aktiv 104 / 93 40% 1 18.11.2026 -
Martín Garnerone Estudiantes Aktiv 119 / 109 40% 2 16.11.2026 -
Santiago Apa All Boys Aktiv 109 / 104 40% 1 16.11.2026 -
Rodrigo Bogarín Barracas Central Aktiv 118 / 113 40% 2 14.11.2026 -
Santiago Sala Güemes Aktiv 109 / 108 40% 1 14.11.2026 -
Misael Sosa Godoy Cruz Aktiv 119 / 111 40% 1 13.11.2026 -
Luciano Cosentino Wanderers Abgelehnt 129 / 127 40% 1 13.11.2026 Mehr Infos nötig
Favio Cabral Mitre Aktiv 117 / 121 40% 1 12.11.2026 -
Juan Rocca Gimnasia y Tiro Aktiv 101 / 95 40% 1 11.11.2026 -
Ezequiel Almirón Estudiantes Aktiv 106 / 125 40% 1 11.11.2026 -
Juan Cruz Franzoni Gimnasia y Esgrima Aktiv 94 / 98 40% 1 11.11.2026 -
Alexander Díaz Deportivo Riestra Aktiv 125 / 122 40% 1 09.11.2026 -
Marco Miori Alvarado Aktiv 103 / 98 40% 1 05.11.2026 -
Max Fenger IFK Goteborg Aktiv 125 / 129 40% 1 05.11.2026 -
Franco García Ferro Carril Oeste Aktiv 112 / 97 40% 1 02.11.2026 -
Razvan Puscas Astra Aktiv 115 / 135 40% 2 01.11.2026 -
Mauro Rodrigues Botev Plovdiv Aktiv 102 / 90 40% 1 29.10.2026 -
Robert Petkovic Zadar Aktiv 114 / 134 40% 1 29.10.2026 -
Mateo Fernández Angusht Aktiv 76 / 88 40% 1 27.10.2026 -
Franco Déboli Slaven Belupo Aktiv 111 / 81 40% 1 20.10.2026 -
Alan Martínez Petrolul Aktiv 100 / 109 40% 1 20.10.2026 -
Gustavo Mosquera Botev Vratsa Aktiv 82 / 89 40% 1 19.10.2026 -
Brayan Alcócer Rubin Aktiv 109 / 98 40% 1 19.10.2026 -
Jonathan Acquah WAFA Aktiv 86 / 102 40% 1 19.10.2026 -
Felipe Fernández Vorskla Aktiv 101 / 120 40% 2 18.10.2026 -
José Balza Deportivo Tachira Aktiv 109 / 119 40% 2 15.10.2026 -
Ronny Maza Aragua Aktiv 99 / 93 40% 1 15.10.2026 -
Carlos Faya Deportivo La Guaira Aktiv 105 / 110 40% 2 13.10.2026 -
Mauro Schönfeld Stjarnan Aktiv 114 / 124 40% 2 13.10.2026 -
Juan Pablo Barinaga Patronato Aktiv 104 / 110 40% 1 13.10.2026 -
Hernán Luna NK Domzale Aktiv 85 / 94 40% 1 13.10.2026 -
Matthew Hoppe SonderjyskE Aktiv 104 / 115 40% 3 11.10.2026 -
Frederik Ihler IF Elfsborg Aktiv 109 / 127 40% 1 11.10.2026 -
Stephen Humphrys Bradford City Aktiv 116 / 122 40% 1 11.10.2026 -
Johar Mejía Rapid Wien Aktiv 97 / 120 40% 4 10.10.2026 -
Ciprian Coman Pandurii Aktiv 108 / 108 40% 2 10.10.2026 -
Eric Ramírez Carabobo Aktiv 112 / 110 40% 2 10.10.2026 -
Ricardo Solbes Unión de Santa Fe Aktiv 94 / 93 40% 3 08.10.2026 -
Bruno Zdunić Dugopolje Aktiv 114 / 106 40% 2 08.10.2026 -
Derrick Etienne Jr. Toronto FC Aktiv 110 / 96 40% 1 08.10.2026 -
Kristian Strømland Lien Djurgarden Aktiv 119 / 128 40% 1 07.10.2026 -
Sam Nombe Milton Keynes Dons Aktiv 116 / 122 40% 1 06.10.2026 -
Rodrigo Trejo Vorskla Aktiv 87 / 91 40% 1 02.10.2026 -
Duván Riascos Jihlava Aktiv 80 / 88 40% 1 25.09.2026 -
David Barrero Podbrezova Aktiv 86 / 80 40% 1 25.09.2026 -
Facundo Rodríguez Talleres Aktiv 93 / 100 40% 1 20.09.2026 -
Ignacio Sabatini Gimnasia y Esgrima Aktiv 110 / 101 40% 1 19.09.2026 -
Georgi Minoungou Colorado Rapids Aktiv 107 / 96 40% 1 18.09.2026 -
Andres Lioi Chaco For Ever Aktiv 107 / 110 40% 1 18.09.2026 -
Juan Peñaloza Vancouver Whitecaps Aktiv 110 / 90 40% 1 18.09.2026 -
Lander Astiazarán Real Sociedad Aktiv 111 / 100 40% 1 13.09.2026 -
Lucas Souto Defensa y Justicia Aktiv 120 / 110 40% 1 13.09.2026 -
Bryan Rivera Estudiantes de Merida Aktiv 111 / 99 40% 1 13.09.2026 -
Cristhofer Mesías Universidad de Concepcion Aktiv 98 / 106 40% 1 12.09.2026 -
Franco Torres Gimnasia La Plata Aktiv 114 / 125 40% 1 12.09.2026 -
Genaro Rossi San Martín SJ Aktiv 108 / 99 40% 1 11.09.2026 -
Gleyfer Medina Los Angeles Football Club Aktiv 108 / 85 40% 1 10.09.2026 -
Tobías Donsanti Slovan Liberec Aktiv 101 / 99 40% 1 10.09.2026 -
Ramiro Ruiz Rodríguez Atlético Tucumán Aktiv 128 / 133 40% 1 10.09.2026 -
Deian Verón Metalist Aktiv 111 / 105 40% 1 09.09.2026 -
Johan Madrid Sporting Cristal Aktiv 116 / 102 40% 1 09.09.2026 -
José Pinto Mineros de Guayana Aktiv 97 / 88 40% 1 09.09.2026 -
Lautaro Lusnig Deportivo Tachira Aktiv 103 / 97 40% 1 08.09.2026 -
Paul Samson Abia Warriors Aktiv 111 / 100 40% 1 07.09.2026 -
Braian Álvarez Arsenal Tula Aktiv 94 / 99 40% 1 07.09.2026 -
Mauro Peinipil Colón Aktiv 108 / 120 40% 1 07.09.2026 -
Elián Pizzi Rosario Central Aktiv 81 / 97 40% 1 09.08.2026 -
Daniel Herrera Cortulua Aktiv 112 / 126 40% 1 09.08.2026 -
Tahiel González Defensa y Justicia Aktiv 76 / 85 40% 1 09.08.2026 -
Emanuel Bonda Argentinos Juniors Aktiv 78 / 99 40% 1 09.08.2026 -
Enzo Romero Defensa y Justicia Aktiv 69 / 96 40% 1 09.08.2026 -
Joaquín Santos Almirante Brown Aktiv 77 / 88 40% 1 09.08.2026 -
Enzo Figueredo Boca Juniors Aktiv 76 / 104 40% 1 04.08.2026 -
Ramiro Paunero Atlético Tucumán Aktiv 83 / 109 40% 1 03.08.2026 -
Ramiro Luján Boca Juniors Aktiv 83 / 105 40% 1 03.08.2026 -
Nicolás Moreno San Martín Aktiv 102 / 117 40% 1 01.08.2026 -
Leandro Suhr Boston River Aktiv 116 / 112 40% 1 01.08.2026 -